createdAt,value
2023-04-22T00:00:26.889Z,3.00
2023-04-22T00:02:54.182Z,3.03
2023-04-22T00:05:21.358Z,3.70
2023-04-22T00:07:48.472Z,3.38
2023-04-22T00:10:15.344Z,3.53
2023-04-22T00:12:42.196Z,3.20
2023-04-22T00:15:09.821Z,3.42
2023-04-22T00:17:37.124Z,4.07
2023-04-22T00:20:04.499Z,3.45
2023-04-22T00:22:31.667Z,3.67
2023-04-22T00:24:58.497Z,3.53
2023-04-22T00:27:25.429Z,3.65
2023-04-22T00:29:52.551Z,3.28
2023-04-22T00:32:19.351Z,3.78
2023-04-22T00:34:46.189Z,3.85
2023-04-22T00:37:13.242Z,4.10
2023-04-22T00:39:40.357Z,3.63
2023-04-22T00:42:08.009Z,3.90
2023-04-22T00:44:36.376Z,4.57
2023-04-22T00:47:04.035Z,3.55
2023-04-22T00:49:31.304Z,4.10
2023-04-22T00:51:58.124Z,4.10
2023-04-22T00:54:25.081Z,4.32
2023-04-22T00:56:51.988Z,4.45
2023-04-22T00:59:18.945Z,3.53
2023-04-22T01:01:46.645Z,4.85
2023-04-22T01:04:15.088Z,4.35
2023-04-22T01:06:44.024Z,3.80
2023-04-22T01:09:10.877Z,4.15
2023-04-22T01:11:37.713Z,4.90
2023-04-22T01:14:05.146Z,4.95
2023-04-22T01:16:35.565Z,4.28
2023-04-22T01:19:02.697Z,4.45
2023-04-22T01:21:29.754Z,3.90
2023-04-22T01:23:56.796Z,4.53
2023-04-22T01:26:23.901Z,3.90
2023-04-22T01:28:51.197Z,4.32
2023-04-22T01:31:18.625Z,4.38
2023-04-22T01:33:46.616Z,4.70
2023-04-22T01:36:13.474Z,5.07
2023-04-22T01:38:41.016Z,4.35
2023-04-22T01:41:08.360Z,4.68
2023-04-22T01:43:36.247Z,4.35
2023-04-22T01:46:05.684Z,4.28
2023-04-22T01:48:34.429Z,4.40
2023-04-22T01:51:01.927Z,4.05
2023-04-22T01:53:28.795Z,4.30
2023-04-22T01:55:55.738Z,4.72
2023-04-22T01:58:22.584Z,4.40
2023-04-22T02:00:49.659Z,4.43
2023-04-22T02:03:16.530Z,4.90
2023-04-22T02:05:43.336Z,4.82
2023-04-22T02:08:10.221Z,4.47
2023-04-22T02:10:37.136Z,4.65
2023-04-22T02:13:04.069Z,4.80
2023-04-22T02:15:31.095Z,4.03
2023-04-22T02:17:58.068Z,4.78
2023-04-22T02:20:24.923Z,4.07
2023-04-22T02:22:51.801Z,4.68
2023-04-22T02:25:18.823Z,4.88
2023-04-22T02:27:45.691Z,4.55
2023-04-22T02:30:12.766Z,4.90
2023-04-22T02:32:40.402Z,4.50
2023-04-22T02:35:07.788Z,4.45
2023-04-22T02:37:34.594Z,4.30
2023-04-22T02:40:01.525Z,4.35
2023-04-22T02:42:28.302Z,4.38
2023-04-22T02:44:55.238Z,4.63
2023-04-22T02:47:23.799Z,4.97
2023-04-22T02:49:50.696Z,5.22
2023-04-22T02:52:17.528Z,5.20
2023-04-22T02:54:44.371Z,4.55
2023-04-22T02:57:11.141Z,5.45
2023-04-22T02:59:38.338Z,4.93
2023-04-22T03:02:06.814Z,5.53
2023-04-22T03:04:34.103Z,5.25
2023-04-22T03:07:00.999Z,4.40
2023-04-22T03:09:27.799Z,4.95
2023-04-22T03:11:56.043Z,5.72
2023-04-22T03:14:22.876Z,5.93
2023-04-22T03:16:49.908Z,5.10
2023-04-22T03:19:16.775Z,5.57
2023-04-22T03:21:43.793Z,5.82
2023-04-22T03:24:10.711Z,6.25
2023-04-22T03:26:37.498Z,6.82
2023-04-22T03:29:04.336Z,6.53
2023-04-22T03:31:31.324Z,5.93
2023-04-22T03:33:58.201Z,6.80
2023-04-22T03:36:25.045Z,6.93
2023-04-22T03:38:51.986Z,7.07
2023-04-22T03:41:18.749Z,7.25
2023-04-22T03:43:45.567Z,7.38
2023-04-22T03:46:12.464Z,7.55
2023-04-22T03:48:39.373Z,6.82
2023-04-22T03:51:06.205Z,7.13
2023-04-22T03:53:33.177Z,7.30
2023-04-22T03:56:00.140Z,6.97
2023-04-22T03:58:27.184Z,7.90
2023-04-22T04:00:54.099Z,8.45
2023-04-22T04:03:21.159Z,7.65
2023-04-22T04:05:48.213Z,7.80
2023-04-22T04:08:15.044Z,7.95
2023-04-22T04:10:42.315Z,7.03
2023-04-22T04:13:09.242Z,6.68
2023-04-22T04:15:38.456Z,7.38
2023-04-22T04:18:05.462Z,7.75
2023-04-22T04:20:32.336Z,7.85
2023-04-22T04:22:59.149Z,8.18
2023-04-22T04:25:26.082Z,7.40
2023-04-22T04:27:52.945Z,6.90
2023-04-22T04:30:21.677Z,6.03
2023-04-22T04:32:48.560Z,7.55
2023-04-22T04:35:16.116Z,7.22
2023-04-22T04:37:43.569Z,7.72
2023-04-22T04:40:12.278Z,7.43
2023-04-22T04:42:39.227Z,7.32
2023-04-22T04:45:07.664Z,7.28
2023-04-22T04:47:34.634Z,6.30
2023-04-22T04:50:05.096Z,7.30
2023-04-22T04:52:31.970Z,6.60
2023-04-22T04:54:58.894Z,7.15
2023-04-22T04:57:25.707Z,7.18
2023-04-22T04:59:52.644Z,6.57
2023-04-22T05:02:19.718Z,6.05
2023-04-22T05:04:47.010Z,6.82
2023-04-22T05:07:14.698Z,6.43
2023-04-22T05:09:41.830Z,6.90
2023-04-22T05:12:08.806Z,7.30
2023-04-22T05:14:35.796Z,6.80
2023-04-22T05:17:03.424Z,6.50
2023-04-22T05:19:30.299Z,7.13
2023-04-22T05:21:57.188Z,6.95
2023-04-22T05:24:24.260Z,6.93
2023-04-22T05:26:51.293Z,6.00
2023-04-22T05:29:18.302Z,5.88
2023-04-22T05:31:45.169Z,6.53
2023-04-22T05:34:12.523Z,6.15
2023-04-22T05:36:39.984Z,6.00
2023-04-22T05:39:06.861Z,6.28
2023-04-22T05:41:33.685Z,7.00
2023-04-22T05:44:00.544Z,6.95
2023-04-22T05:46:27.428Z,6.93
2023-04-22T05:48:55.732Z,6.72
2023-04-22T05:51:23.844Z,6.85
2023-04-22T05:53:51.156Z,6.97
2023-04-22T05:56:18.213Z,6.13
2023-04-22T05:58:45.316Z,6.82
2023-04-22T06:01:12.192Z,6.50
2023-04-22T06:03:39.426Z,6.78
2023-04-22T06:06:06.843Z,6.20
2023-04-22T06:08:33.799Z,7.13
2023-04-22T06:11:00.737Z,5.95
2023-04-22T06:13:28.091Z,6.68
2023-04-22T06:15:55.001Z,6.60
2023-04-22T06:18:21.889Z,6.65
2023-04-22T06:20:48.750Z,5.97
2023-04-22T06:23:15.658Z,6.95
2023-04-22T06:25:42.569Z,7.10
2023-04-22T06:28:09.381Z,5.65
2023-04-22T06:30:36.481Z,5.25
2023-04-22T06:33:03.424Z,5.72
2023-04-22T06:35:30.309Z,5.35
2023-04-22T06:37:57.173Z,6.13
2023-04-22T06:40:24.308Z,5.47
2023-04-22T06:42:51.395Z,5.85
2023-04-22T06:45:18.565Z,5.43
2023-04-22T06:47:45.580Z,5.70
2023-04-22T06:50:12.664Z,4.30
2023-04-22T06:52:39.448Z,5.13
2023-04-22T06:55:06.705Z,6.10
2023-04-22T06:57:33.622Z,5.65
2023-04-22T07:00:00.832Z,6.38
2023-04-22T07:02:27.646Z,5.53
2023-04-22T07:04:54.535Z,6.00
2023-04-22T07:07:21.478Z,5.05
2023-04-22T07:09:48.554Z,5.72
2023-04-22T07:12:15.765Z,5.63
2023-04-22T07:14:46.729Z,5.65
2023-04-22T07:17:13.636Z,5.72
2023-04-22T07:19:41.172Z,5.22
2023-04-22T07:22:08.596Z,5.88
2023-04-22T07:24:35.470Z,4.80
2023-04-22T07:27:02.667Z,4.68
2023-04-22T07:29:29.594Z,4.80
2023-04-22T07:31:56.541Z,5.20
2023-04-22T07:34:23.522Z,4.95
2023-04-22T07:36:52.330Z,4.82
2023-04-22T07:39:19.502Z,4.60
2023-04-22T07:41:46.436Z,5.47
2023-04-22T07:44:16.523Z,4.85
2023-04-22T07:46:43.633Z,4.30
2023-04-22T07:49:10.580Z,4.57
2023-04-22T07:51:37.428Z,4.25
2023-04-22T07:54:04.333Z,4.45
2023-04-22T07:56:31.169Z,4.70
2023-04-22T07:58:58.034Z,3.88
2023-04-22T08:01:24.881Z,3.88
2023-04-22T08:03:52.144Z,4.55
2023-04-22T08:06:19.313Z,3.83
2023-04-22T08:08:46.443Z,3.47
2023-04-22T08:11:13.490Z,4.13
2023-04-22T08:13:40.564Z,3.33
2023-04-22T08:16:07.540Z,3.72
2023-04-22T08:18:37.476Z,2.85
2023-04-22T08:21:04.587Z,2.90
2023-04-22T08:23:31.390Z,2.85
2023-04-22T08:25:58.493Z,2.72
2023-04-22T08:28:25.799Z,2.53
2023-04-22T08:30:52.645Z,2.58
2023-04-22T08:33:19.515Z,2.95
2023-04-22T08:35:46.497Z,2.85
2023-04-22T08:38:13.459Z,3.22
2023-04-22T08:40:43.473Z,3.20
2023-04-22T08:43:10.477Z,3.35
2023-04-22T08:45:40.779Z,2.35
2023-04-22T08:48:12.506Z,2.83
2023-04-22T08:50:39.899Z,2.30
2023-04-22T08:53:06.874Z,2.58
2023-04-22T08:55:35.713Z,2.75
2023-04-22T08:58:06.028Z,2.90
2023-04-22T09:00:34.650Z,2.90
2023-04-22T09:03:05.057Z,2.97
2023-04-22T09:05:34.208Z,2.60
2023-04-22T09:08:02.298Z,2.50
2023-04-22T09:10:31.382Z,2.38
2023-04-22T09:13:00.133Z,2.70
2023-04-22T09:15:27.801Z,2.47
2023-04-22T09:17:55.410Z,2.75
2023-04-22T09:20:27.677Z,3.10
2023-04-22T09:22:56.719Z,2.45
2023-04-22T09:25:26.692Z,2.20
2023-04-22T09:27:55.854Z,2.33
2023-04-22T09:30:44.457Z,2.75
2023-04-22T09:33:13.730Z,2.20
2023-04-22T09:35:42.109Z,2.03
2023-04-22T09:38:11.004Z,2.97
2023-04-22T09:40:41.190Z,2.83
2023-04-22T09:43:09.435Z,2.05
2023-04-22T09:45:38.794Z,2.40
2023-04-22T09:48:14.788Z,2.60
2023-04-22T09:50:45.639Z,2.42
2023-04-22T09:53:17.123Z,1.85
2023-04-22T09:55:49.908Z,1.75
2023-04-22T09:58:19.199Z,1.92
2023-04-22T10:00:48.669Z,1.73
2023-04-22T10:03:16.172Z,1.58
2023-04-22T10:05:45.718Z,1.60
2023-04-22T10:08:14.886Z,1.90
2023-04-22T10:10:42.549Z,1.80
2023-04-22T10:13:09.700Z,2.40
2023-04-22T10:15:42.624Z,2.85
2023-04-22T10:18:13.843Z,2.10
2023-04-22T10:20:42.829Z,1.80
2023-04-22T10:23:19.950Z,2.05
2023-04-22T10:25:56.617Z,2.00
2023-04-22T10:28:27.597Z,2.65
2023-04-22T10:30:54.550Z,1.92
2023-04-22T10:33:21.731Z,3.30
2023-04-22T10:36:08.493Z,2.30
2023-04-22T10:38:39.800Z,2.28
2023-04-22T10:41:07.095Z,2.17
2023-04-22T10:43:48.420Z,1.80
2023-04-22T10:46:40.359Z,2.38
2023-04-22T10:49:11.446Z,2.40
2023-04-22T10:51:41.624Z,2.05
2023-04-22T10:54:31.555Z,1.40
2023-04-22T10:57:07.999Z,1.83
2023-04-22T10:59:56.332Z,1.60
2023-04-22T11:02:24.434Z,1.88
2023-04-22T11:04:55.216Z,2.53
2023-04-22T11:07:28.054Z,2.20
2023-04-22T11:10:07.651Z,2.72
2023-04-22T11:12:41.936Z,2.63
2023-04-22T11:15:11.956Z,2.63
2023-04-22T11:17:41.826Z,3.00
2023-04-22T11:20:09.982Z,2.17
2023-04-22T11:22:38.424Z,2.15
2023-04-22T11:25:06.451Z,2.38
2023-04-22T11:27:33.433Z,2.33
2023-04-22T11:30:07.585Z,2.05
2023-04-22T11:32:35.971Z,1.45
2023-04-22T11:35:05.629Z,2.45
2023-04-22T11:37:45.007Z,2.60
2023-04-22T11:40:28.897Z,2.20
2023-04-22T11:42:58.710Z,2.55
2023-04-22T11:45:26.119Z,2.80
2023-04-22T11:47:53.922Z,2.45
2023-04-22T11:50:26.777Z,2.28
2023-04-22T11:52:54.969Z,2.60
2023-04-22T11:55:25.903Z,1.83
2023-04-22T11:58:00.398Z,2.67
2023-04-22T12:00:33.179Z,2.80
2023-04-22T12:03:08.083Z,1.83
2023-04-22T12:06:04.543Z,2.28
2023-04-22T12:08:31.805Z,2.10
2023-04-22T12:11:07.702Z,2.47
2023-04-22T12:13:43.050Z,2.50
2023-04-22T12:16:20.261Z,2.85
2023-04-22T12:18:51.228Z,2.50
2023-04-22T12:21:21.793Z,2.53
2023-04-22T12:24:05.088Z,2.10
2023-04-22T12:26:32.308Z,3.10
2023-04-22T12:29:00.542Z,2.67
2023-04-22T12:31:28.282Z,1.98
2023-04-22T12:33:56.068Z,2.22
2023-04-22T12:36:23.696Z,2.13
2023-04-22T12:38:51.242Z,2.05
2023-04-22T12:41:18.159Z,4.88
2023-04-22T12:43:45.117Z,2.25
2023-04-22T12:46:12.112Z,2.20
2023-04-22T12:48:39.139Z,2.40
2023-04-22T12:51:06.908Z,2.63
2023-04-22T12:53:34.610Z,2.50
2023-04-22T12:56:01.641Z,2.22
2023-04-22T12:58:28.488Z,2.40
2023-04-22T13:00:55.377Z,2.75
2023-04-22T13:03:22.358Z,2.15
2023-04-22T13:05:49.393Z,2.58
2023-04-22T13:08:17.058Z,2.10
2023-04-22T13:10:43.950Z,3.63
2023-04-22T13:13:18.527Z,2.97
2023-04-22T13:15:54.416Z,3.03
2023-04-22T13:18:23.497Z,3.13
2023-04-22T13:20:51.408Z,2.88
2023-04-22T13:23:19.858Z,2.47
2023-04-22T13:25:47.720Z,2.92
2023-04-22T13:28:14.845Z,1.90
2023-04-22T13:30:41.807Z,2.20
2023-04-22T13:33:08.634Z,1.80
2023-04-22T13:35:36.620Z,2.08
2023-04-22T13:38:03.816Z,2.22
2023-04-22T13:40:30.764Z,2.42
2023-04-22T13:42:57.891Z,2.35
2023-04-22T13:45:25.690Z,1.85
2023-04-22T13:47:54.383Z,2.80
2023-04-22T13:50:21.360Z,1.73
2023-04-22T13:52:48.406Z,1.73
2023-04-22T13:55:15.201Z,1.98
2023-04-22T13:57:42.202Z,2.00
2023-04-22T14:00:09.766Z,1.80
2023-04-22T14:02:37.150Z,2.28
2023-04-22T14:05:05.296Z,1.73
2023-04-22T14:07:32.138Z,2.10
2023-04-22T14:09:59.024Z,2.10
2023-04-22T14:12:25.897Z,2.00
2023-04-22T14:14:52.778Z,2.20
2023-04-22T14:17:22.077Z,2.05
2023-04-22T14:19:49.466Z,2.33
2023-04-22T14:22:16.382Z,3.42
2023-04-22T14:24:43.347Z,1.85
2023-04-22T14:27:11.966Z,1.60
2023-04-22T14:29:40.013Z,1.63
2023-04-22T14:32:07.155Z,2.38
2023-04-22T14:34:34.095Z,2.40
2023-04-22T14:37:00.964Z,2.47
2023-04-22T14:39:27.820Z,2.75
2023-04-22T14:41:55.411Z,2.50
2023-04-22T14:44:22.332Z,2.72
2023-04-22T14:46:49.211Z,2.67
2023-04-22T14:49:18.258Z,3.40
2023-04-22T14:51:45.056Z,2.15
2023-04-22T14:54:12.367Z,3.22
2023-04-22T14:56:39.331Z,2.13
2023-04-22T14:59:10.033Z,3.10
2023-04-22T15:01:40.704Z,3.15
2023-04-22T15:04:08.151Z,3.13
2023-04-22T15:06:35.117Z,2.95
2023-04-22T15:09:01.944Z,3.13
2023-04-22T15:11:29.098Z,3.08
2023-04-22T15:13:56.082Z,3.72
2023-04-22T15:16:23.136Z,3.30
2023-04-22T15:18:50.215Z,3.30
2023-04-22T15:21:17.049Z,4.20
2023-04-22T15:23:46.390Z,5.45
2023-04-22T15:26:14.733Z,4.97
2023-04-22T15:28:41.734Z,4.88
2023-04-22T15:31:08.592Z,5.40
2023-04-22T15:33:35.566Z,5.43
2023-04-22T15:36:04.261Z,5.68
2023-04-22T15:38:31.161Z,6.10
2023-04-22T15:40:58.355Z,5.65
2023-04-22T15:43:25.138Z,6.18
2023-04-22T15:45:52.540Z,7.70
2023-04-22T15:48:20.399Z,7.07
2023-04-22T15:50:47.229Z,6.57
2023-04-22T15:53:14.097Z,7.15
2023-04-22T15:55:41.017Z,6.82
2023-04-22T15:58:07.849Z,7.65
2023-04-22T16:00:37.833Z,7.13
2023-04-22T16:03:05.975Z,9.60
2023-04-22T16:05:34.799Z,8.70
2023-04-22T16:08:01.780Z,10.13
2023-04-22T16:10:31.075Z,10.07
2023-04-22T16:12:58.397Z,10.20
2023-04-22T16:15:26.304Z,10.48
2023-04-22T16:17:53.272Z,10.05
2023-04-22T16:20:20.268Z,10.35
2023-04-22T16:22:47.112Z,11.32
2023-04-22T16:25:16.979Z,8.85
2023-04-22T16:27:45.750Z,9.38
2023-04-22T16:30:16.285Z,10.15
2023-04-22T16:32:43.369Z,9.95
2023-04-22T16:35:11.212Z,8.23
2023-04-22T16:37:47.082Z,9.45
2023-04-22T16:40:14.255Z,10.60
2023-04-22T16:42:41.102Z,7.90
2023-04-22T16:45:08.276Z,8.95
2023-04-22T16:47:35.084Z,7.60
2023-04-22T16:50:02.129Z,8.75
2023-04-22T16:52:29.208Z,10.10
2023-04-22T16:54:56.105Z,8.32
2023-04-22T16:57:23.129Z,8.02
2023-04-22T16:59:50.163Z,7.65
2023-04-22T17:02:17.149Z,7.72
2023-04-22T17:04:45.898Z,8.05
2023-04-22T17:07:12.802Z,8.43
2023-04-22T17:09:39.921Z,8.57
2023-04-22T17:12:06.996Z,9.02
2023-04-22T17:14:33.831Z,7.97
2023-04-22T17:17:05.159Z,9.30
2023-04-22T17:19:32.164Z,9.65
2023-04-22T17:21:59.038Z,9.15
2023-04-22T17:24:25.985Z,8.25
2023-04-22T17:26:52.824Z,9.50
2023-04-22T17:29:21.756Z,8.60
2023-04-22T17:31:53.796Z,9.85
2023-04-22T17:34:21.729Z,8.77
2023-04-22T17:36:50.784Z,10.18
2023-04-22T17:39:17.606Z,8.73
2023-04-22T17:41:44.808Z,9.55
2023-04-22T17:44:11.680Z,8.90
2023-04-22T17:46:38.541Z,8.00
2023-04-22T17:49:05.405Z,8.93
2023-04-22T17:51:32.417Z,8.75
2023-04-22T17:54:01.030Z,10.02
2023-04-22T17:56:28.246Z,9.70
2023-04-22T17:58:55.065Z,9.80
2023-04-22T18:01:22.011Z,10.07
2023-04-22T18:03:49.171Z,9.18
2023-04-22T18:06:16.252Z,9.25
2023-04-22T18:08:43.127Z,8.82
2023-04-22T18:11:11.163Z,9.80
2023-04-22T18:13:38.551Z,7.53
2023-04-22T18:16:05.694Z,9.45
2023-04-22T18:18:32.528Z,9.07
2023-04-22T18:21:00.784Z,9.40
2023-04-22T18:23:28.857Z,10.65
2023-04-22T18:25:55.865Z,8.98
2023-04-22T18:28:22.802Z,9.93
2023-04-22T18:30:50.029Z,10.10
2023-04-22T18:33:16.838Z,9.65
2023-04-22T18:35:43.900Z,8.32
2023-04-22T18:38:10.775Z,9.38
2023-04-22T18:40:37.656Z,9.93
2023-04-22T18:43:04.586Z,10.93
2023-04-22T18:45:31.569Z,10.60
2023-04-22T18:47:59.335Z,10.30
2023-04-22T18:50:26.193Z,11.20
2023-04-22T18:52:53.325Z,10.35
2023-04-22T18:55:20.260Z,11.00
2023-04-22T18:57:47.093Z,10.23
2023-04-22T19:00:16.383Z,9.52
2023-04-22T19:02:45.033Z,10.02
2023-04-22T19:05:14.723Z,10.18
2023-04-22T19:07:44.467Z,11.02
2023-04-22T19:10:12.139Z,10.63
2023-04-22T19:12:39.112Z,9.90
2023-04-22T19:15:06.987Z,8.80
2023-04-22T19:17:34.834Z,8.80
2023-04-22T19:20:01.922Z,10.57
2023-04-22T19:22:28.965Z,9.52
2023-04-22T19:24:57.715Z,9.48
2023-04-22T19:27:25.509Z,9.25
2023-04-22T19:29:53.446Z,9.93
2023-04-22T19:32:21.035Z,11.32
2023-04-22T19:34:48.057Z,9.40
2023-04-22T19:37:14.929Z,10.32
2023-04-22T19:39:42.240Z,10.07
2023-04-22T19:42:09.541Z,9.88
2023-04-22T19:44:41.113Z,9.02
2023-04-22T19:47:08.288Z,9.43
2023-04-22T19:49:35.487Z,9.25
2023-04-22T19:52:03.205Z,8.98
2023-04-22T19:54:30.451Z,10.05
2023-04-22T19:56:58.576Z,8.55
2023-04-22T19:59:32.780Z,8.73
2023-04-22T20:02:10.026Z,7.85
2023-04-22T20:04:37.828Z,8.40
2023-04-22T20:07:06.814Z,8.98
2023-04-22T20:09:35.650Z,8.25
2023-04-22T20:12:04.801Z,7.40
2023-04-22T20:14:32.847Z,8.20
2023-04-22T20:16:59.844Z,8.40
2023-04-22T20:19:28.402Z,9.13
2023-04-22T20:21:57.265Z,9.38
2023-04-22T20:24:25.470Z,11.02
2023-04-22T20:26:52.355Z,11.25
2023-04-22T20:29:20.554Z,9.90
2023-04-22T20:31:47.579Z,11.40
2023-04-22T20:34:15.936Z,10.77
2023-04-22T20:36:43.214Z,11.32
2023-04-22T20:39:14.085Z,10.93
2023-04-22T20:41:41.355Z,11.43
2023-04-22T20:44:08.481Z,10.95
2023-04-22T20:46:35.428Z,11.27
2023-04-22T20:49:02.257Z,10.90
2023-04-22T20:51:29.216Z,11.15
2023-04-22T20:53:56.475Z,11.27
2023-04-22T20:56:24.867Z,10.48
2023-04-22T20:58:51.833Z,10.50
2023-04-22T21:01:19.622Z,11.30
2023-04-22T21:03:51.900Z,12.13
2023-04-22T21:06:20.625Z,11.50
2023-04-22T21:08:49.066Z,12.05
2023-04-22T21:11:16.458Z,12.80
2023-04-22T21:13:44.814Z,10.10
2023-04-22T21:16:13.706Z,9.77
2023-04-22T21:18:43.906Z,10.82
2023-04-22T21:21:13.465Z,8.88
2023-04-22T21:23:47.465Z,11.20
2023-04-22T21:26:14.862Z,9.68
2023-04-22T21:28:41.969Z,9.40
2023-04-22T21:31:09.157Z,8.68
2023-04-22T21:33:36.112Z,8.30
2023-04-22T21:36:03.036Z,9.80
2023-04-22T21:38:29.982Z,9.88
2023-04-22T21:40:56.782Z,9.20
2023-04-22T21:43:23.705Z,9.27
2023-04-22T21:45:50.690Z,9.50
2023-04-22T21:48:17.579Z,9.45
2023-04-22T21:50:44.904Z,9.15
2023-04-22T21:53:12.024Z,8.80
2023-04-22T21:55:39.230Z,9.57
2023-04-22T21:58:06.130Z,10.57
2023-04-22T22:00:33.336Z,9.18
2023-04-22T22:03:00.394Z,8.95
2023-04-22T22:05:29.579Z,10.48
2023-04-22T22:07:58.787Z,9.55
2023-04-22T22:10:26.173Z,10.70
2023-04-22T22:12:53.161Z,10.15
2023-04-22T22:15:20.345Z,9.90
2023-04-22T22:17:47.481Z,10.05
2023-04-22T22:20:22.165Z,9.98
2023-04-22T22:22:56.133Z,10.05
2023-04-22T22:25:23.060Z,11.15
2023-04-22T22:27:50.192Z,10.15
2023-04-22T22:30:22.083Z,10.75
2023-04-22T22:32:49.508Z,11.88
2023-04-22T22:35:16.637Z,12.20
2023-04-22T22:37:44.646Z,11.80
2023-04-22T22:40:12.211Z,11.95
2023-04-22T22:42:39.020Z,13.27
2023-04-22T22:45:06.798Z,13.52
2023-04-22T22:47:33.826Z,12.82
2023-04-22T22:50:00.777Z,12.82
2023-04-22T22:52:27.776Z,12.10
2023-04-22T22:54:54.600Z,13.15
2023-04-22T22:57:21.499Z,12.55
2023-04-22T22:59:48.353Z,14.00
2023-04-22T23:02:15.370Z,12.68
2023-04-22T23:04:42.624Z,13.82
2023-04-22T23:07:09.761Z,13.55
2023-04-22T23:09:36.626Z,14.70
2023-04-22T23:12:03.636Z,13.48
2023-04-22T23:14:30.840Z,13.30
2023-04-22T23:16:57.728Z,14.85
2023-04-22T23:19:25.716Z,13.77
2023-04-22T23:21:55.325Z,13.77
2023-04-22T23:24:22.584Z,14.55
2023-04-22T23:26:49.812Z,15.35
2023-04-22T23:29:17.356Z,14.38
2023-04-22T23:31:44.967Z,16.40
2023-04-22T23:34:12.646Z,13.82
2023-04-22T23:36:39.604Z,13.23
2023-04-22T23:39:09.618Z,13.68
2023-04-22T23:41:36.837Z,13.82
2023-04-22T23:44:04.055Z,14.20
2023-04-22T23:46:31.016Z,13.75
2023-04-22T23:48:59.072Z,12.18
2023-04-22T23:51:25.979Z,12.73
2023-04-22T23:53:53.024Z,13.52
2023-04-22T23:56:22.800Z,14.07
2023-04-22T23:58:51.032Z,14.00
